Time;durP1;ratioP1;P1;durP2;ratioP2;P2;SDS_P1;SDS_P2;PMS_P1;PMS_P2;Temp;Humidity;BMP_temperature;BMP_pressure;BME280_temperature;BME280_humidity;BME280_pressure;Samples;Min_cycle;Max_cycle;Signal;HPM_P1;HPM_P2
2023/04/22 00:00:57;;;;;;;4.40;3.50;;;11.50;84.20;;;;;;5059530;28;20379;-70
2023/04/22 00:03:23;;;;;;;5.10;4.00;;;11.50;84.20;;;;;;5050320;28;20028;-69
2023/04/22 00:05:49;;;;;;;5.95;4.47;;;11.40;84.30;;;;;;5049976;28;20404;-70
2023/04/22 00:08:14;;;;;;;5.32;4.60;;;11.30;84.90;;;;;;5049981;28;20075;-68
2023/04/22 00:10:40;;;;;;;5.55;4.50;;;11.20;85.50;;;;;;5056409;28;20037;-69
2023/04/22 00:13:05;;;;;;;6.50;4.90;;;11.10;86.00;;;;;;5058196;28;20026;-69
2023/04/22 00:15:31;;;;;;;6.88;5.50;;;11.10;86.30;;;;;;5047056;28;20032;-69
2023/04/22 00:17:58;;;;;;;8.40;6.03;;;11.00;87.10;;;;;;5044208;28;20029;-68
2023/04/22 00:20:24;;;;;;;6.22;5.30;;;10.90;87.70;;;;;;5047856;28;20067;-70
2023/04/22 00:22:50;;;;;;;6.35;5.20;;;10.80;88.30;;;;;;5064069;28;20024;-70
2023/04/22 00:25:16;;;;;;;5.68;4.47;;;10.80;88.70;;;;;;5051852;28;20033;-70
2023/04/22 00:27:41;;;;;;;5.07;4.40;;;10.80;88.70;;;;;;5048464;28;20068;-70
2023/04/22 00:30:08;;;;;;;6.35;4.50;;;10.80;88.70;;;;;;5050706;28;20106;-69
2023/04/22 00:32:34;;;;;;;4.93;4.32;;;10.80;89.30;;;;;;5049647;28;20175;-71
2023/04/22 00:34:59;;;;;;;5.43;4.20;;;10.80;88.60;;;;;;5049736;28;20507;-70
2023/04/22 00:37:25;;;;;;;8.15;4.78;;;10.80;88.50;;;;;;5048592;28;20035;-70
2023/04/22 00:39:51;;;;;;;6.80;4.88;;;10.80;88.80;;;;;;5048935;28;20025;-70
2023/04/22 00:42:16;;;;;;;5.75;4.10;;;10.70;89.20;;;;;;5030901;28;20036;-71
2023/04/22 00:44:42;;;;;;;7.03;4.95;;;10.70;89.80;;;;;;5050134;28;20032;-70
2023/04/22 00:47:11;;;;;;;5.65;4.70;;;10.60;90.10;;;;;;5048179;28;20522;-70
2023/04/22 00:49:36;;;;;;;8.18;5.72;;;10.60;90.40;;;;;;5047709;28;20119;-71
2023/04/22 00:52:02;;;;;;;6.22;5.00;;;10.50;90.40;;;;;;5052416;28;20538;-71
2023/04/22 00:54:28;;;;;;;6.60;4.80;;;10.50;90.50;;;;;;5032439;28;20029;-71
2023/04/22 00:56:56;;;;;;;7.32;5.57;;;10.50;90.90;;;;;;5053226;28;20090;-71
2023/04/22 00:59:22;;;;;;;6.32;5.13;;;10.50;91.00;;;;;;5050432;28;20032;-71
2023/04/22 01:01:49;;;;;;;6.90;5.55;;;10.50;91.10;;;;;;5049716;28;20344;-70
2023/04/22 01:04:15;;;;;;;6.53;5.53;;;10.50;91.20;;;;;;5049378;28;20021;-69
2023/04/22 01:06:43;;;;;;;5.75;4.97;;;10.50;91.20;;;;;;5051122;28;20086;-70
2023/04/22 01:09:08;;;;;;;7.65;6.35;;;10.60;91.10;;;;;;5053125;28;20086;-70
2023/04/22 01:11:35;;;;;;;9.63;7.50;;;10.50;91.30;;;;;;5049859;28;20033;-69
2023/04/22 01:14:02;;;;;;;11.40;8.88;;;10.50;91.50;;;;;;5049199;28;20098;-70
2023/04/22 01:16:29;;;;;;;9.98;7.45;;;10.40;91.60;;;;;;5031319;28;20029;-68
2023/04/22 01:18:55;;;;;;;9.35;7.65;;;10.40;91.70;;;;;;5033674;28;20120;-69
2023/04/22 01:21:21;;;;;;;8.70;7.80;;;10.40;91.90;;;;;;5053032;28;20515;-70
2023/04/22 01:23:47;;;;;;;8.10;7.30;;;10.40;91.90;;;;;;5052843;28;20025;-69
2023/04/22 01:26:13;;;;;;;10.32;8.70;;;10.40;91.90;;;;;;5052602;28;20155;-70
2023/04/22 01:28:39;;;;;;;10.82;8.02;;;10.40;92.00;;;;;;5052665;28;20174;-70
2023/04/22 01:31:04;;;;;;;8.43;7.07;;;10.40;92.00;;;;;;5060841;28;20029;-70
2023/04/22 01:33:30;;;;;;;9.73;7.30;;;10.40;92.10;;;;;;5063929;28;20025;-70
2023/04/22 01:35:56;;;;;;;9.43;7.80;;;10.40;92.10;;;;;;5044741;28;20038;-69
2023/04/22 01:38:22;;;;;;;9.48;7.78;;;10.40;92.20;;;;;;5039469;28;20025;-70
2023/04/22 01:40:48;;;;;;;10.05;9.05;;;10.40;92.30;;;;;;5053582;28;20056;-70
2023/04/22 01:43:14;;;;;;;12.95;9.57;;;10.30;92.50;;;;;;5052799;28;20068;-70
2023/04/22 01:45:39;;;;;;;11.35;9.38;;;10.40;92.50;;;;;;5054159;28;20083;-70
2023/04/22 01:48:09;;;;;;;12.32;10.50;;;10.40;92.50;;;;;;5063846;28;20388;-70
2023/04/22 01:50:35;;;;;;;10.07;8.70;;;10.40;92.60;;;;;;5053029;28;20049;-69
2023/04/22 01:53:01;;;;;;;10.52;9.43;;;10.50;92.50;;;;;;5063664;28;20538;-69
2023/04/22 01:55:28;;;;;;;10.88;9.50;;;10.40;92.50;;;;;;5034184;28;20089;-70
2023/04/22 01:57:54;;;;;;;10.55;8.93;;;10.40;92.50;;;;;;5052429;28;20056;-70
2023/04/22 02:00:19;;;;;;;11.88;10.13;;;10.40;92.50;;;;;;5034258;28;20060;-69
2023/04/22 02:02:45;;;;;;;13.48;11.00;;;10.40;92.50;;;;;;5054363;28;20692;-70
2023/04/22 02:05:10;;;;;;;11.85;10.32;;;10.40;92.60;;;;;;5052264;28;20028;-69
2023/04/22 02:07:36;;;;;;;12.05;10.65;;;10.50;92.60;;;;;;5050447;28;20024;-69
2023/04/22 02:10:04;;;;;;;10.60;8.95;;;10.50;92.60;;;;;;5051322;28;20029;-71
2023/04/22 02:12:31;;;;;;;11.75;9.63;;;10.50;92.50;;;;;;5054469;28;20113;-70
2023/04/22 02:14:56;;;;;;;11.27;9.93;;;10.50;92.50;;;;;;5051955;28;20028;-69
2023/04/22 02:17:22;;;;;;;12.98;10.07;;;10.50;92.50;;;;;;5051942;28;20450;-68
2023/04/22 02:19:48;;;;;;;13.93;10.93;;;10.50;92.50;;;;;;5052608;28;20112;-70
2023/04/22 02:22:13;;;;;;;11.68;10.00;;;10.50;92.60;;;;;;5065973;28;20116;-70
2023/04/22 02:24:39;;;;;;;14.38;11.40;;;10.50;92.60;;;;;;5051978;28;20033;-69
2023/04/22 02:27:05;;;;;;;13.90;11.98;;;10.50;92.60;;;;;;5052182;28;20491;-68
2023/04/22 02:29:31;;;;;;;12.98;10.30;;;10.50;92.50;;;;;;5051290;28;20140;-70
2023/04/22 02:31:58;;;;;;;15.70;11.85;;;10.60;92.50;;;;;;5052449;28;20029;-70
2023/04/22 02:34:23;;;;;;;12.95;10.40;;;10.60;92.60;;;;;;5032011;28;20140;-70
2023/04/22 02:36:49;;;;;;;11.18;9.93;;;10.50;92.50;;;;;;5048223;28;20143;-68
2023/04/22 02:39:15;;;;;;;12.35;11.05;;;10.50;92.60;;;;;;5069627;28;20028;-70
2023/04/22 02:41:40;;;;;;;12.30;10.50;;;10.50;92.70;;;;;;5054437;28;20039;-70
2023/04/22 02:44:06;;;;;;;12.88;10.90;;;10.40;92.70;;;;;;5036784;28;20090;-70
2023/04/22 02:46:31;;;;;;;13.43;11.95;;;10.40;92.80;;;;;;5032657;28;20391;-69
2023/04/22 02:48:57;;;;;;;16.40;12.93;;;10.40;92.80;;;;;;5051196;28;20030;-70
2023/04/22 02:51:22;;;;;;;12.93;11.43;;;10.40;92.90;;;;;;5066089;28;20127;-69
2023/04/22 02:53:48;;;;;;;15.13;12.95;;;10.40;93.00;;;;;;5050757;28;20048;-70
2023/04/22 02:56:13;;;;;;;14.88;12.45;;;10.40;93.10;;;;;;5050439;28;20484;-70
2023/04/22 02:58:39;;;;;;;14.95;12.50;;;10.40;93.10;;;;;;5050921;28;20055;-69
2023/04/22 03:01:05;;;;;;;17.70;13.23;;;10.40;93.10;;;;;;5050545;28;20491;-70
2023/04/22 03:03:30;;;;;;;14.70;12.32;;;10.40;93.10;;;;;;5067068;28;20390;-68
2023/04/22 03:05:56;;;;;;;13.70;11.63;;;10.40;93.00;;;;;;5051966;28;20029;-69
2023/04/22 03:08:22;;;;;;;12.95;11.10;;;10.40;93.00;;;;;;5059500;28;20033;-69
2023/04/22 03:10:47;;;;;;;13.70;12.23;;;10.40;93.00;;;;;;5060230;28;20480;-70
2023/04/22 03:13:13;;;;;;;13.98;11.82;;;10.40;93.00;;;;;;5057233;28;20037;-70
2023/04/22 03:15:40;;;;;;;14.32;12.32;;;10.40;93.00;;;;;;5032565;28;20079;-70
2023/04/22 03:18:06;;;;;;;13.90;12.32;;;10.40;93.00;;;;;;5050900;28;20027;-70
2023/04/22 03:20:31;;;;;;;13.93;11.82;;;10.50;93.00;;;;;;5040024;28;20467;-70
2023/04/22 03:22:57;;;;;;;15.88;12.80;;;10.50;92.90;;;;;;5066442;28;20055;-70
2023/04/22 03:25:22;;;;;;;15.18;12.52;;;10.50;92.90;;;;;;5043290;28;20502;-70
2023/04/22 03:27:48;;;;;;;16.13;12.18;;;10.40;93.00;;;;;;5052776;28;20185;-71
2023/04/22 03:30:14;;;;;;;15.45;13.75;;;10.50;93.00;;;;;;5049766;28;20021;-70
2023/04/22 03:32:39;;;;;;;13.77;12.30;;;10.40;93.00;;;;;;5048670;28;20507;-70
2023/04/22 03:35:05;;;;;;;16.33;13.98;;;10.50;93.00;;;;;;5049565;28;20032;-69
2023/04/22 03:37:31;;;;;;;18.15;14.70;;;10.50;93.00;;;;;;5058085;28;20043;-70
2023/04/22 03:39:56;;;;;;;15.45;13.07;;;10.50;93.00;;;;;;5050213;28;20442;-71
2023/04/22 03:42:22;;;;;;;16.40;13.68;;;10.50;92.90;;;;;;5051508;28;20147;-69
2023/04/22 03:44:47;;;;;;;15.27;13.05;;;10.50;92.80;;;;;;5063864;28;20071;-70
2023/04/22 03:47:13;;;;;;;15.40;13.70;;;10.50;92.80;;;;;;5050694;28;20024;-69
2023/04/22 03:49:38;;;;;;;13.20;11.35;;;10.50;92.70;;;;;;5064446;28;20135;-69
2023/04/22 03:52:04;;;;;;;15.77;12.98;;;10.50;92.80;;;;;;5057140;28;20029;-71
2023/04/22 03:54:30;;;;;;;13.13;11.57;;;10.50;92.70;;;;;;5052394;28;20025;-70
2023/04/22 03:56:55;;;;;;;16.77;14.63;;;10.60;92.70;;;;;;5055819;28;20037;-69
2023/04/22 03:59:21;;;;;;;13.80;12.25;;;10.60;92.70;;;;;;5054047;28;20028;-69
2023/04/22 04:01:49;;;;;;;16.70;13.32;;;10.50;92.70;;;;;;5049196;28;20503;-70
2023/04/22 04:04:15;;;;;;;16.00;13.88;;;10.60;92.70;;;;;;5031796;28;20589;-70
2023/04/22 04:06:40;;;;;;;15.90;13.35;;;10.50;92.70;;;;;;5049676;28;20032;-69
2023/04/22 04:09:06;;;;;;;16.75;14.00;;;10.50;92.70;;;;;;5051569;28;20029;-70
2023/04/22 04:11:31;;;;;;;17.52;14.40;;;10.50;92.70;;;;;;5040176;28;20546;-70
2023/04/22 04:13:57;;;;;;;16.75;14.45;;;10.50;92.80;;;;;;5059708;28;20040;-69
2023/04/22 04:16:22;;;;;;;18.73;14.43;;;10.50;92.80;;;;;;5037875;28;20025;-69
2023/04/22 04:18:51;;;;;;;16.67;14.15;;;10.50;92.80;;;;;;5061148;28;20580;-69
2023/04/22 04:21:17;;;;;;;16.80;14.60;;;10.50;92.80;;;;;;5050027;28;20032;-70
2023/04/22 04:23:43;;;;;;;17.85;15.02;;;10.50;92.70;;;;;;5056099;28;20107;-70
2023/04/22 04:26:08;;;;;;;18.70;15.45;;;10.50;92.70;;;;;;5038889;28;20041;-70
2023/04/22 04:28:34;;;;;;;18.92;15.85;;;10.50;92.70;;;;;;5036344;28;20029;-70
2023/04/22 04:31:04;;;;;;;17.95;15.20;;;10.50;92.80;;;;;;5066995;28;20033;-69
2023/04/22 04:33:31;;;;;;;20.95;17.42;;;10.50;92.70;;;;;;5053216;28;20490;-71
2023/04/22 04:35:58;;;;;;;19.33;16.35;;;10.50;92.70;;;;;;5041603;28;20036;-68
2023/04/22 04:38:24;;;;;;;21.15;16.42;;;10.60;92.70;;;;;;5060067;28;20071;-68
2023/04/22 04:40:50;;;;;;;17.58;14.75;;;10.60;92.60;;;;;;5050350;28;20395;-69
2023/04/22 04:43:16;;;;;;;18.90;16.33;;;10.60;92.70;;;;;;5031990;28;20021;-69
2023/04/22 04:45:45;;;;;;;21.88;17.60;;;10.60;92.70;;;;;;5058824;28;20033;-69
2023/04/22 04:48:12;;;;;;;20.70;17.45;;;10.60;92.70;;;;;;5049564;28;20020;-70
2023/04/22 04:50:37;;;;;;;16.80;14.35;;;10.60;93.10;;;;;;5058229;28;20384;-69
2023/04/22 04:53:03;;;;;;;21.67;17.83;;;10.60;93.00;;;;;;5049767;28;20025;-69
2023/04/22 04:55:29;;;;;;;17.20;14.15;;;10.60;92.70;;;;;;5069843;28;20491;-71
2023/04/22 04:57:54;;;;;;;17.40;14.57;;;10.70;92.70;;;;;;5059521;28;20054;-70
2023/04/22 05:00:20;;;;;;;19.20;15.02;;;10.70;92.60;;;;;;5051913;28;20021;-69
2023/04/22 05:02:45;;;;;;;20.20;16.25;;;10.80;92.50;;;;;;5051893;28;20044;-68
2023/04/22 05:05:11;;;;;;;21.70;17.25;;;10.80;92.40;;;;;;5062568;28;20032;-69
2023/04/22 05:07:36;;;;;;;17.40;14.63;;;10.80;92.40;;;;;;5058323;28;20032;-69
2023/04/22 05:10:02;;;;;;;20.27;16.30;;;10.80;92.40;;;;;;5058843;28;20111;-70
2023/04/22 05:12:28;;;;;;;18.38;15.23;;;10.90;92.40;;;;;;5064192;28;20021;-68
2023/04/22 05:14:53;;;;;;;22.48;17.35;;;10.90;92.30;;;;;;5073359;28;20032;-69
2023/04/22 05:17:19;;;;;;;21.15;17.92;;;10.90;92.30;;;;;;5052743;28;20021;-69
2023/04/22 05:19:45;;;;;;;18.45;16.40;;;10.90;92.30;;;;;;5052388;28;20087;-69
2023/04/22 05:22:10;;;;;;;18.58;16.20;;;10.90;92.30;;;;;;5052695;28;20080;-69
2023/04/22 05:24:38;;;;;;;19.80;15.48;;;10.90;92.30;;;;;;5052284;28;20060;-70
2023/04/22 05:27:04;;;;;;;18.73;15.38;;;10.90;92.30;;;;;;5052185;28;20509;-68
2023/04/22 05:29:30;;;;;;;18.20;15.10;;;10.90;92.30;;;;;;5052259;28;20017;-69
2023/04/22 05:31:56;;;;;;;20.35;17.20;;;10.90;92.20;;;;;;5052820;28;20020;-69
2023/04/22 05:34:21;;;;;;;20.23;15.63;;;10.90;92.20;;;;;;5051245;28;20490;-69
2023/04/22 05:36:47;;;;;;;16.83;14.30;;;10.90;92.20;;;;;;5054272;28;20087;-69
2023/04/22 05:39:12;;;;;;;17.73;14.95;;;11.00;92.20;;;;;;5051758;28;20033;-68
2023/04/22 05:41:38;;;;;;;17.70;14.57;;;11.00;92.10;;;;;;5053345;28;20547;-69
2023/04/22 05:44:03;;;;;;;17.40;13.95;;;11.10;92.00;;;;;;5051105;28;20040;-68
2023/04/22 05:46:30;;;;;;;16.60;13.00;;;11.10;91.90;;;;;;5052081;28;20664;-69
2023/04/22 05:48:55;;;;;;;15.10;12.68;;;11.20;91.80;;;;;;5051789;28;20403;-69
2023/04/22 05:51:22;;;;;;;15.55;13.00;;;11.20;91.70;;;;;;5051604;28;20075;-68
2023/04/22 05:53:48;;;;;;;17.17;13.30;;;11.30;91.60;;;;;;5056712;28;20036;-69
2023/04/22 05:56:14;;;;;;;14.65;12.55;;;11.30;91.50;;;;;;5051912;28;20021;-69
2023/04/22 05:58:39;;;;;;;15.52;13.05;;;11.30;91.50;;;;;;5057892;28;20114;-70
2023/04/22 06:01:05;;;;;;;16.17;13.48;;;11.40;91.50;;;;;;5052215;28;20017;-69
2023/04/22 06:03:30;;;;;;;16.02;13.57;;;11.30;91.40;;;;;;5052561;28;20037;-69
2023/04/22 06:05:56;;;;;;;16.75;13.13;;;11.40;91.40;;;;;;5052229;28;20104;-70
2023/04/22 06:08:21;;;;;;;18.35;14.70;;;11.40;91.30;;;;;;5051809;28;20062;-69
2023/04/22 06:10:47;;;;;;;19.10;15.02;;;11.40;91.20;;;;;;5052473;28;20029;-69
2023/04/22 06:13:12;;;;;;;18.20;14.57;;;11.40;91.30;;;;;;5052305;28;20025;-69
2023/04/22 06:15:38;;;;;;;16.83;14.02;;;11.50;91.30;;;;;;5034246;28;20145;-68
2023/04/22 06:18:04;;;;;;;15.23;12.40;;;11.50;91.20;;;;;;5052135;28;20021;-69
2023/04/22 06:20:31;;;;;;;17.92;15.23;;;11.60;91.20;;;;;;5052145;28;20017;-68
2023/04/22 06:22:57;;;;;;;20.35;16.30;;;11.60;91.10;;;;;;5052023;28;20362;-70
2023/04/22 06:25:23;;;;;;;18.17;14.15;;;11.60;91.10;;;;;;5033851;28;20128;-69
2023/04/22 06:27:48;;;;;;;17.98;14.50;;;11.70;91.00;;;;;;5052170;28;20068;-69
2023/04/22 06:30:14;;;;;;;18.70;15.60;;;11.70;91.00;;;;;;5051808;28;20479;-67
2023/04/22 06:32:39;;;;;;;20.38;16.08;;;11.80;90.90;;;;;;5034090;28;20120;-69
2023/04/22 06:35:05;;;;;;;19.65;15.75;;;11.80;90.80;;;;;;5034037;28;20075;-69
2023/04/22 06:37:31;;;;;;;16.80;13.77;;;11.90;90.80;;;;;;5033897;28;20028;-69
2023/04/22 06:39:57;;;;;;;16.38;14.52;;;12.10;90.70;;;;;;5051654;28;20029;-69
2023/04/22 06:42:22;;;;;;;18.25;15.05;;;12.50;90.40;;;;;;5051945;28;20027;-67
2023/04/22 06:44:48;;;;;;;18.80;15.40;;;12.90;89.70;;;;;;5051966;28;20483;-69
2023/04/22 06:47:13;;;;;;;19.33;16.02;;;13.60;87.80;;;;;;5052172;28;20440;-70
2023/04/22 06:49:39;;;;;;;18.27;15.15;;;14.90;85.40;;;;;;5052365;28;20048;-69
2023/04/22 06:52:05;;;;;;;18.35;15.38;;;16.30;79.90;;;;;;5052027;28;20492;-67
2023/04/22 06:54:30;;;;;;;16.27;14.18;;;17.20;75.60;;;;;;5051503;28;20044;-69
2023/04/22 06:56:56;;;;;;;15.60;13.07;;;18.10;72.30;;;;;;5051288;28;20025;-69
2023/04/22 06:59:22;;;;;;;15.02;12.15;;;19.10;69.50;;;;;;5051430;28;20025;-69
2023/04/22 07:01:48;;;;;;;13.48;10.98;;;19.90;66.20;;;;;;5051205;28;20025;-69
2023/04/22 07:04:13;;;;;;;13.90;11.20;;;20.40;65.10;;;;;;5051269;28;20051;-69
2023/04/22 07:06:39;;;;;;;13.55;11.32;;;20.70;63.40;;;;;;5051035;28;20029;-70
2023/04/22 07:09:05;;;;;;;13.25;11.20;;;20.80;62.30;;;;;;5051135;28;20036;-70
2023/04/22 07:11:30;;;;;;;12.85;10.98;;;20.20;61.80;;;;;;5051020;28;20025;-69
2023/04/22 07:13:56;;;;;;;11.73;8.20;;;20.60;62.20;;;;;;5051073;28;20479;-69
2023/04/22 07:16:22;;;;;;;11.93;10.38;;;21.50;61.40;;;;;;5050304;28;20021;-69
2023/04/22 07:18:48;;;;;;;10.85;8.98;;;22.20;59.50;;;;;;5051388;28;20494;-69
2023/04/22 07:21:13;;;;;;;9.95;8.57;;;22.40;58.80;;;;;;5050803;28;20290;-71
2023/04/22 07:23:39;;;;;;;10.27;9.18;;;22.70;57.50;;;;;;5050857;28;20108;-69
2023/04/22 07:26:05;;;;;;;12.23;9.73;;;22.90;56.70;;;;;;5050819;28;20061;-70
2023/04/22 07:28:30;;;;;;;9.98;8.88;;;22.80;56.00;;;;;;5050576;28;20127;-68
2023/04/22 07:30:56;;;;;;;10.60;9.50;;;22.90;55.70;;;;;;5050877;28;20047;-69
2023/04/22 07:33:21;;;;;;;10.93;9.23;;;23.20;54.80;;;;;;5050326;28;20112;-70
2023/04/22 07:35:47;;;;;;;9.95;8.45;;;22.10;55.20;;;;;;5050448;28;20021;-69
2023/04/22 07:38:14;;;;;;;9.35;7.90;;;21.10;58.00;;;;;;5050293;28;20467;-69
2023/04/22 07:40:40;;;;;;;9.32;8.27;;;20.90;58.70;;;;;;5050458;28;20025;-69
2023/04/22 07:43:05;;;;;;;10.27;8.77;;;21.40;58.60;;;;;;5050599;28;20040;-70
2023/04/22 07:45:32;;;;;;;9.88;8.60;;;22.10;56.10;;;;;;5050419;28;20029;-68
2023/04/22 07:47:58;;;;;;;12.15;9.20;;;22.30;55.30;;;;;;5050769;28;20107;-68
2023/04/22 07:50:23;;;;;;;9.73;8.52;;;22.30;55.60;;;;;;5050272;28;20056;-69
2023/04/22 07:52:49;;;;;;;11.05;9.10;;;22.40;55.00;;;;;;5050310;28;20498;-70
2023/04/22 07:55:15;;;;;;;9.23;7.28;;;22.30;55.00;;;;;;5050167;28;20031;-68
2023/04/22 07:57:40;;;;;;;8.75;7.85;;;22.30;55.70;;;;;;5032321;28;20064;-69
2023/04/22 08:00:07;;;;;;;8.88;7.43;;;21.90;56.00;;;;;;5050151;28;20024;-68
2023/04/22 08:02:32;;;;;;;13.10;10.57;;;22.40;56.20;;;;;;5050244;28;20507;-69
2023/04/22 08:04:58;;;;;;;8.55;7.45;;;22.60;55.10;;;;;;5049878;28;20100;-68
2023/04/22 08:07:24;;;;;;;10.82;9.27;;;22.70;55.20;;;;;;5050061;28;20072;-69
2023/04/22 08:09:49;;;;;;;9.82;8.57;;;22.50;54.90;;;;;;5049992;28;20025;-70
2023/04/22 08:12:15;;;;;;;8.30;7.32;;;22.30;55.90;;;;;;5050112;28;20116;-68
2023/04/22 08:14:40;;;;;;;10.27;9.20;;;22.80;56.00;;;;;;5050013;28;20021;-68
2023/04/22 08:17:06;;;;;;;9.25;7.65;;;22.10;56.00;;;;;;5049986;28;20033;-70
2023/04/22 08:19:32;;;;;;;9.05;7.57;;;21.90;57.70;;;;;;5050432;28;20017;-69
2023/04/22 08:21:57;;;;;;;9.43;8.32;;;21.60;57.70;;;;;;5050260;28;20017;-69
2023/04/22 08:24:23;;;;;;;9.57;7.55;;;21.20;58.20;;;;;;5050119;28;20655;-68
2023/04/22 08:26:48;;;;;;;11.30;7.40;;;20.90;59.00;;;;;;5049736;28;20040;-69
2023/04/22 08:29:14;;;;;;;8.60;6.75;;;20.40;60.10;;;;;;5053313;28;20025;-69
2023/04/22 08:31:40;;;;;;;9.68;8.60;;;20.00;61.20;;;;;;5054327;28;20103;-69
2023/04/22 08:34:06;;;;;;;8.68;7.57;;;19.30;62.20;;;;;;5053868;28;20017;-68
2023/04/22 08:36:31;;;;;;;8.52;7.65;;;18.80;63.80;;;;;;5053632;28;20092;-67
2023/04/22 08:38:57;;;;;;;8.23;7.07;;;18.60;64.90;;;;;;5053912;28;20562;-69
2023/04/22 08:41:25;;;;;;;9.48;7.28;;;18.50;65.60;;;;;;5054077;28;20036;-69
2023/04/22 08:43:55;;;;;;;10.35;8.15;;;18.20;66.00;;;;;;5053886;28;20029;-68
2023/04/22 08:46:22;;;;;;;16.75;7.82;;;18.20;66.70;;;;;;5053534;28;20021;-69
2023/04/22 08:48:49;;;;;;;8.27;7.30;;;18.20;67.20;;;;;;5053714;28;20024;-67
2023/04/22 08:51:16;;;;;;;9.55;7.80;;;18.10;67.50;;;;;;5053632;28;20037;-68
2023/04/22 08:53:45;;;;;;;12.77;8.55;;;18.20;67.70;;;;;;5053844;28;20349;-68
2023/04/22 08:56:15;;;;;;;8.23;7.25;;;18.20;67.70;;;;;;5053673;28;20372;-68
2023/04/22 08:58:41;;;;;;;9.18;7.38;;;18.20;68.20;;;;;;5053580;28;20013;-68
2023/04/22 09:01:07;;;;;;;9.40;7.57;;;18.30;68.30;;;;;;5053737;28;20102;-67
2023/04/22 09:03:35;;;;;;;10.55;7.88;;;18.40;68.40;;;;;;5053554;28;20025;-68
2023/04/22 09:06:03;;;;;;;8.95;7.15;;;18.40;67.50;;;;;;5053568;28;20438;-68
2023/04/22 09:08:29;;;;;;;6.22;5.60;;;18.40;67.90;;;;;;5053333;28;20029;-68
2023/04/22 09:10:54;;;;;;;8.52;7.63;;;18.60;68.00;;;;;;5053706;28;20029;-69
2023/04/22 09:13:21;;;;;;;8.65;7.68;;;18.60;67.80;;;;;;5053589;28;20091;-68
2023/04/22 09:15:47;;;;;;;8.90;7.47;;;18.50;67.80;;;;;;5053787;28;20032;-66
2023/04/22 09:18:18;;;;;;;7.38;6.22;;;18.40;67.80;;;;;;5053838;28;20021;-68
2023/04/22 09:20:45;;;;;;;8.32;7.43;;;18.30;68.20;;;;;;5053473;28;20013;-66
2023/04/22 09:23:11;;;;;;;8.45;6.50;;;18.30;68.10;;;;;;5035399;28;20016;-68
2023/04/22 09:25:37;;;;;;;7.45;5.85;;;18.30;68.30;;;;;;5053331;28;20037;-68
2023/04/22 09:28:03;;;;;;;6.88;6.18;;;18.50;68.40;;;;;;5035183;28;20502;-68
2023/04/22 09:30:31;;;;;;;5.82;4.70;;;18.60;67.50;;;;;;5053140;28;20111;-68
2023/04/22 09:32:59;;;;;;;7.05;5.82;;;18.70;67.20;;;;;;5053107;28;20029;-68
2023/04/22 09:35:35;;;;;;;8.50;5.60;;;18.80;67.00;;;;;;5035029;28;20075;-68
2023/04/22 09:38:03;;;;;;;8.10;5.88;;;18.90;66.80;;;;;;5052963;28;20104;-68
2023/04/22 09:40:30;;;;;;;9.32;7.20;;;18.90;66.50;;;;;;5052299;28;20096;-68
2023/04/22 09:42:59;;;;;;;6.97;6.10;;;18.90;65.40;;;;;;5052850;28;20541;-66
2023/04/22 09:45:35;;;;;;;8.20;6.97;;;18.80;65.60;;;;;;5052637;28;20107;-67
2023/04/22 09:48:11;;;;;;;6.88;5.93;;;18.90;65.60;;;;;;5052485;28;20017;-68
2023/04/22 09:50:39;;;;;;;7.97;6.10;;;18.90;65.70;;;;;;5052850;28;20048;-69
2023/04/22 09:53:10;;;;;;;7.68;6.28;;;18.90;65.20;;;;;;5052710;28;20074;-66
2023/04/22 09:55:40;;;;;;;6.45;5.45;;;18.90;65.30;;;;;;5052370;28;20079;-67
2023/04/22 09:58:10;;;;;;;6.85;5.90;;;19.00;65.60;;;;;;5052540;28;20068;-68
2023/04/22 10:00:55;;;;;;;8.05;6.55;;;19.20;65.50;;;;;;5052421;28;20067;-68
2023/04/22 10:03:21;;;;;;;6.65;5.70;;;19.30;64.60;;;;;;5052563;28;20017;-66
2023/04/22 10:05:47;;;;;;;5.63;5.03;;;19.50;64.60;;;;;;5052173;28;20449;-66
2023/04/22 10:08:14;;;;;;;6.28;5.43;;;19.70;64.40;;;;;;5052288;28;20528;-67
2023/04/22 10:10:41;;;;;;;5.95;5.35;;;19.90;64.30;;;;;;5052329;28;20104;-68
2023/04/22 10:13:07;;;;;;;6.55;5.72;;;20.00;63.80;;;;;;5052295;28;20499;-67
2023/04/22 10:15:48;;;;;;;6.25;5.55;;;20.20;63.40;;;;;;5052073;28;20036;-67
2023/04/22 10:18:20;;;;;;;6.85;6.05;;;20.10;63.10;;;;;;5052029;28;20013;-68
2023/04/22 10:20:47;;;;;;;8.07;7.15;;;20.00;62.80;;;;;;5051936;28;20051;-68
2023/04/22 10:23:16;;;;;;;11.70;6.85;;;20.00;62.70;;;;;;5052065;28;20114;-68
2023/04/22 10:25:47;;;;;;;21.95;7.13;;;19.90;62.20;;;;;;5051795;28;20033;-66
2023/04/22 10:28:15;;;;;;;9.00;5.60;;;19.90;62.50;;;;;;5051963;28;20108;-68
2023/04/22 10:30:41;;;;;;;19.83;6.35;;;19.80;62.50;;;;;;5052069;28;20029;-67
2023/04/22 10:33:27;;;;;;;6.88;6.13;;;19.90;62.90;;;;;;5052145;28;20036;-68
2023/04/22 10:36:16;;;;;;;8.65;6.45;;;19.80;62.10;;;;;;5034454;28;20055;-68
2023/04/22 10:39:02;;;;;;;6.97;5.78;;;19.70;62.50;;;;;;5051797;28;20025;-68
2023/04/22 10:41:34;;;;;;;6.72;5.60;;;19.80;62.60;;;;;;5051495;28;20090;-69
2023/04/22 10:44:04;;;;;;;7.50;5.82;;;19.80;62.20;;;;;;5051931;28;20277;-69
2023/04/22 10:46:36;;;;;;;6.50;5.70;;;20.00;61.80;;;;;;5051652;28;20506;-68
2023/04/22 10:49:21;;;;;;;5.40;4.90;;;20.00;60.80;;;;;;5033601;28;20029;-69
2023/04/22 10:51:54;;;;;;;8.57;6.53;;;20.00;61.30;;;;;;5050556;28;20036;-68
2023/04/22 10:54:35;;;;;;;6.72;5.55;;;20.20;60.60;;;;;;5052054;28;20033;-70
2023/04/22 10:57:08;;;;;;;6.55;5.43;;;20.20;60.60;;;;;;5051436;28;20044;-68
2023/04/22 10:59:44;;;;;;;7.03;5.78;;;20.20;61.20;;;;;;5051304;28;20029;-68
2023/04/22 11:02:12;;;;;;;6.82;6.10;;;20.30;61.20;;;;;;5051232;28;20021;-68
2023/04/22 11:04:38;;;;;;;6.95;6.25;;;20.20;60.90;;;;;;5051568;28;20159;-68
2023/04/22 11:07:19;;;;;;;6.72;5.43;;;20.20;61.30;;;;;;5051219;28;20025;-69
2023/04/22 11:09:48;;;;;;;8.63;5.88;;;20.30;61.50;;;;;;5051024;28;20060;-68
2023/04/22 11:12:38;;;;;;;5.72;5.13;;;20.40;61.70;;;;;;5051560;28;20020;-69
2023/04/22 11:15:25;;;;;;;6.80;5.85;;;20.70;61.60;;;;;;5050878;28;20096;-69
2023/04/22 11:17:52;;;;;;;7.60;5.88;;;20.80;61.10;;;;;;5050740;28;20582;-69
2023/04/22 11:20:18;;;;;;;6.60;5.28;;;20.90;60.80;;;;;;5050690;28;20017;-69
2023/04/22 11:22:52;;;;;;;10.25;7.10;;;20.80;60.80;;;;;;5050692;28;20021;-66
2023/04/22 11:25:19;;;;;;;13.52;6.43;;;20.70;60.50;;;;;;5050791;28;20036;-68
2023/04/22 11:27:45;;;;;;;23.80;7.00;;;20.50;61.00;;;;;;5050608;28;20024;-67
2023/04/22 11:30:21;;;;;;;6.32;5.20;;;20.50;61.60;;;;;;5050589;28;20448;-68
2023/04/22 11:32:48;;;;;;;21.23;6.15;;;20.60;61.60;;;;;;5050732;28;20498;-67
2023/04/22 11:35:19;;;;;;;11.82;6.07;;;20.60;60.90;;;;;;5050552;28;20021;-67
2023/04/22 11:37:46;;;;;;;6.53;5.40;;;20.60;61.20;;;;;;5050674;28;20021;-68
2023/04/22 11:40:15;;;;;;;6.65;4.97;;;20.50;61.00;;;;;;5050808;28;20028;-68
2023/04/22 11:42:40;;;;;;;8.90;6.85;;;20.50;61.10;;;;;;5051054;28;20387;-68
2023/04/22 11:45:07;;;;;;;7.22;6.07;;;20.50;60.70;;;;;;5050972;28;20021;-68
2023/04/22 11:47:33;;;;;;;7.93;6.20;;;20.50;60.60;;;;;;5050479;28;20024;-69
2023/04/22 11:50:03;;;;;;;6.50;5.57;;;20.40;60.30;;;;;;5050333;28;20024;-67
2023/04/22 11:52:50;;;;;;;6.97;5.18;;;20.20;60.40;;;;;;5050551;28;20021;-68
2023/04/22 11:55:29;;;;;;;6.57;5.55;;;20.30;60.90;;;;;;5050039;28;20037;-68
2023/04/22 11:58:06;;;;;;;6.60;5.95;;;20.30;60.80;;;;;;5050540;28;20013;-66
2023/04/22 12:00:42;;;;;;;6.45;5.50;;;20.30;60.60;;;;;;5049806;28;20029;-68
2023/04/22 12:03:16;;;;;;;6.30;5.43;;;20.20;60.50;;;;;;5049681;28;20017;-68
2023/04/22 12:05:41;;;;;;;6.00;5.00;;;20.20;60.70;;;;;;5050130;28;20037;-67
2023/04/22 12:08:15;;;;;;;5.32;4.82;;;20.00;60.70;;;;;;5032148;28;20039;-68
2023/04/22 12:10:55;;;;;;;6.60;5.32;;;20.00;60.90;;;;;;5050733;28;20032;-67
2023/04/22 12:13:33;;;;;;;7.78;5.90;;;20.00;60.80;;;;;;5032269;28;20028;-67
2023/04/22 12:16:05;;;;;;;5.78;4.90;;;19.80;60.70;;;;;;5050001;28;20106;-68
2023/04/22 12:18:35;;;;;;;5.20;4.40;;;19.70;61.30;;;;;;5050051;28;20028;-68
2023/04/22 12:21:08;;;;;;;5.45;4.40;;;19.70;61.70;;;;;;5050121;28;20407;-68
2023/04/22 12:23:48;;;;;;;6.78;4.93;;;19.60;62.20;;;;;;5050172;28;20090;-67
2023/04/22 12:26:15;;;;;;;6.97;3.90;;;19.60;62.60;;;;;;5049817;28;20035;-68
2023/04/22 12:28:41;;;;;;;6.72;5.40;;;19.60;63.00;;;;;;5049586;28;20038;-68
2023/04/22 12:31:08;;;;;;;5.85;5.13;;;19.50;63.10;;;;;;5049747;28;20021;-67
2023/04/22 12:33:35;;;;;;;5.72;5.13;;;19.40;63.20;;;;;;5031859;28;20025;-68
2023/04/22 12:36:01;;;;;;;6.35;4.93;;;19.40;63.50;;;;;;5049809;28;20111;-68
2023/04/22 12:38:26;;;;;;;5.70;4.80;;;19.30;63.80;;;;;;5031790;28;20068;-68